sensor_id;sensor_type;location;lat;lon;timestamp;pressure;altitude;pressure_sealevel;temperature;humidity
59686;BME280;45554;51.096;16.976;2024-03-25T00:01:16;98641.52;;;5.61;69.38
59686;BME280;45554;51.096;16.976;2024-03-25T00:03:45;98639.17;;;5.60;69.57
59686;BME280;45554;51.096;16.976;2024-03-25T00:06:13;98632.79;;;5.56;69.83
59686;BME280;45554;51.096;16.976;2024-03-25T00:08:41;98632.27;;;5.59;69.55
59686;BME280;45554;51.096;16.976;2024-03-25T00:11:09;98636.61;;;5.59;69.64
59686;BME280;45554;51.096;16.976;2024-03-25T00:13:36;98629.84;;;5.59;69.34
59686;BME280;45554;51.096;16.976;2024-03-25T00:16:06;98631.48;;;5.61;69.50
59686;BME280;45554;51.096;16.976;2024-03-25T00:18:33;98629.59;;;5.60;69.68
59686;BME280;45554;51.096;16.976;2024-03-25T00:21:01;98631.32;;;5.63;69.37
59686;BME280;45554;51.096;16.976;2024-03-25T00:23:29;98631.04;;;5.66;69.47
59686;BME280;45554;51.096;16.976;2024-03-25T00:25:56;98629.19;;;5.67;69.13
59686;BME280;45554;51.096;16.976;2024-03-25T00:28:23;98624.23;;;5.68;68.91
59686;BME280;45554;51.096;16.976;2024-03-25T00:30:50;98619.48;;;5.66;69.12
59686;BME280;45554;51.096;16.976;2024-03-25T00:33:17;98625.22;;;5.72;68.84
59686;BME280;45554;51.096;16.976;2024-03-25T00:35:47;98631.90;;;5.74;68.88
59686;BME280;45554;51.096;16.976;2024-03-25T00:38:15;98633.94;;;5.74;68.95
59686;BME280;45554;51.096;16.976;2024-03-25T00:40:42;98644.72;;;5.75;69.56
59686;BME280;45554;51.096;16.976;2024-03-25T00:43:17;98645.87;;;5.67;71.45
59686;BME280;45554;51.096;16.976;2024-03-25T00:45:46;98655.98;;;5.55;73.73
59686;BME280;45554;51.096;16.976;2024-03-25T00:48:18;98664.61;;;5.35;76.80
59686;BME280;45554;51.096;16.976;2024-03-25T00:50:45;98660.32;;;5.08;79.22
59686;BME280;45554;51.096;16.976;2024-03-25T00:53:15;98648.15;;;4.62;81.99
59686;BME280;45554;51.096;16.976;2024-03-25T00:55:45;98668.22;;;4.44;84.60
59686;BME280;45554;51.096;16.976;2024-03-25T00:58:14;98662.92;;;4.21;85.85
59686;BME280;45554;51.096;16.976;2024-03-25T01:00:42;98659.19;;;4.03;86.12
59686;BME280;45554;51.096;16.976;2024-03-25T01:03:13;98638.75;;;3.84;86.50
59686;BME280;45554;51.096;16.976;2024-03-25T01:05:43;98655.42;;;3.86;88.92
59686;BME280;45554;51.096;16.976;2024-03-25T01:08:16;98630.30;;;3.63;90.29
59686;BME280;45554;51.096;16.976;2024-03-25T01:10:51;98609.92;;;3.45;89.78
59686;BME280;45554;51.096;16.976;2024-03-25T01:13:18;98636.84;;;3.60;90.36
59686;BME280;45554;51.096;16.976;2024-03-25T01:15:45;98634.25;;;3.53;91.09
59686;BME280;45554;51.096;16.976;2024-03-25T01:18:13;98627.02;;;3.49;91.28
59686;BME280;45554;51.096;16.976;2024-03-25T01:20:41;98620.09;;;3.43;90.70
59686;BME280;45554;51.096;16.976;2024-03-25T01:23:08;98601.32;;;3.34;90.17
59686;BME280;45554;51.096;16.976;2024-03-25T01:25:35;98625.95;;;3.47;90.11
59686;BME280;45554;51.096;16.976;2024-03-25T01:28:02;98627.53;;;3.49;90.50
59686;BME280;45554;51.096;16.976;2024-03-25T01:30:29;98618.17;;;3.50;90.42
59686;BME280;45554;51.096;16.976;2024-03-25T01:32:57;98612.84;;;3.52;90.24
59686;BME280;45554;51.096;16.976;2024-03-25T01:35:26;98591.98;;;3.40;90.17
59686;BME280;45554;51.096;16.976;2024-03-25T01:37:56;98610.17;;;3.53;90.28
59686;BME280;45554;51.096;16.976;2024-03-25T01:40:25;98608.96;;;3.56;90.65
59686;BME280;45554;51.096;16.976;2024-03-25T01:42:57;98607.93;;;3.60;90.49
59686;BME280;45554;51.096;16.976;2024-03-25T01:45:32;98605.92;;;3.62;90.20
59686;BME280;45554;51.096;16.976;2024-03-25T01:48:08;98610.19;;;3.63;90.34
59686;BME280;45554;51.096;16.976;2024-03-25T01:50:49;98601.73;;;3.62;90.44
59686;BME280;45554;51.096;16.976;2024-03-25T01:53:16;98608.23;;;3.67;90.38
59686;BME280;45554;51.096;16.976;2024-03-25T01:55:43;98603.06;;;3.70;90.35
59686;BME280;45554;51.096;16.976;2024-03-25T01:58:14;98607.98;;;3.72;90.45
59686;BME280;45554;51.096;16.976;2024-03-25T02:00:43;98600.05;;;3.71;90.46
59686;BME280;45554;51.096;16.976;2024-03-25T02:03:13;98601.80;;;3.71;90.31
59686;BME280;45554;51.096;16.976;2024-03-25T02:05:40;98602.02;;;3.70;90.30
59686;BME280;45554;51.096;16.976;2024-03-25T02:08:09;98593.91;;;3.66;90.56
59686;BME280;45554;51.096;16.976;2024-03-25T02:10:37;98602.41;;;3.72;90.66
59686;BME280;45554;51.096;16.976;2024-03-25T02:13:06;98604.53;;;3.75;90.59
59686;BME280;45554;51.096;16.976;2024-03-25T02:15:36;98599.60;;;3.77;91.01
59686;BME280;45554;51.096;16.976;2024-03-25T02:18:03;98601.60;;;3.78;90.90
59686;BME280;45554;51.096;16.976;2024-03-25T02:20:30;98603.06;;;3.77;91.47
59686;BME280;45554;51.096;16.976;2024-03-25T02:22:57;98601.73;;;3.76;91.41
59686;BME280;45554;51.096;16.976;2024-03-25T02:25:25;98599.73;;;3.74;91.86
59686;BME280;45554;51.096;16.976;2024-03-25T02:27:52;98598.10;;;3.72;91.49
59686;BME280;45554;51.096;16.976;2024-03-25T02:30:18;98596.34;;;3.73;91.51
59686;BME280;45554;51.096;16.976;2024-03-25T02:32:46;98599.77;;;3.73;91.33
59686;BME280;45554;51.096;16.976;2024-03-25T02:35:49;98604.41;;;3.74;91.39
59686;BME280;45554;51.096;16.976;2024-03-25T02:38:16;98603.17;;;3.75;91.41
59686;BME280;45554;51.096;16.976;2024-03-25T02:40:45;98604.27;;;3.77;91.32
59686;BME280;45554;51.096;16.976;2024-03-25T02:43:14;98606.25;;;3.78;91.56
59686;BME280;45554;51.096;16.976;2024-03-25T02:45:42;98604.38;;;3.78;91.95
59686;BME280;45554;51.096;16.976;2024-03-25T02:48:15;98605.97;;;3.81;91.65
59686;BME280;45554;51.096;16.976;2024-03-25T02:50:42;98597.69;;;3.76;91.77
59686;BME280;45554;51.096;16.976;2024-03-25T02:53:12;98606.77;;;3.82;91.27
59686;BME280;45554;51.096;16.976;2024-03-25T02:55:41;98601.65;;;3.84;91.28
59686;BME280;45554;51.096;16.976;2024-03-25T02:58:14;98602.76;;;3.86;91.66
59686;BME280;45554;51.096;16.976;2024-03-25T03:00:45;98602.49;;;3.88;91.83
59686;BME280;45554;51.096;16.976;2024-03-25T03:03:17;98589.87;;;3.77;91.76
59686;BME280;45554;51.096;16.976;2024-03-25T03:05:54;98604.50;;;3.92;91.82
59686;BME280;45554;51.096;16.976;2024-03-25T03:08:21;98595.84;;;3.88;91.55
59686;BME280;45554;51.096;16.976;2024-03-25T03:10:49;98597.63;;;3.91;91.56
59686;BME280;45554;51.096;16.976;2024-03-25T03:13:16;98614.23;;;3.98;91.49
59686;BME280;45554;51.096;16.976;2024-03-25T03:15:44;98616.44;;;3.99;91.72
59686;BME280;45554;51.096;16.976;2024-03-25T03:18:19;98614.77;;;4.01;91.85
59686;BME280;45554;51.096;16.976;2024-03-25T03:20:52;98615.17;;;4.03;91.52
59686;BME280;45554;51.096;16.976;2024-03-25T03:23:30;98612.95;;;4.02;91.22
59686;BME280;45554;51.096;16.976;2024-03-25T03:26:04;98609.56;;;4.04;91.77
59686;BME280;45554;51.096;16.976;2024-03-25T03:28:37;98618.41;;;4.04;91.59
59686;BME280;45554;51.096;16.976;2024-03-25T03:31:07;98620.30;;;4.04;91.65
59686;BME280;45554;51.096;16.976;2024-03-25T03:33:34;98626.52;;;4.05;91.88
59686;BME280;45554;51.096;16.976;2024-03-25T03:36:01;98627.52;;;4.05;91.99
59686;BME280;45554;51.096;16.976;2024-03-25T03:38:29;98626.11;;;4.06;91.84
59686;BME280;45554;51.096;16.976;2024-03-25T03:41:01;98632.31;;;4.06;92.03
59686;BME280;45554;51.096;16.976;2024-03-25T03:43:30;98638.17;;;4.07;92.08
59686;BME280;45554;51.096;16.976;2024-03-25T03:45:59;98639.38;;;4.07;92.41
59686;BME280;45554;51.096;16.976;2024-03-25T03:48:26;98639.11;;;4.05;92.20
59686;BME280;45554;51.096;16.976;2024-03-25T03:51:00;98621.23;;;3.87;92.40
59686;BME280;45554;51.096;16.976;2024-03-25T03:53:37;98643.09;;;4.00;92.09
59686;BME280;45554;51.096;16.976;2024-03-25T03:56:10;98640.09;;;3.97;92.15
59686;BME280;45554;51.096;16.976;2024-03-25T03:58:42;98640.20;;;3.95;92.36
59686;BME280;45554;51.096;16.976;2024-03-25T04:01:17;98644.06;;;3.95;92.48
59686;BME280;45554;51.096;16.976;2024-03-25T04:03:47;98635.54;;;3.88;92.17
59686;BME280;45554;51.096;16.976;2024-03-25T04:06:17;98637.38;;;3.93;91.96
59686;BME280;45554;51.096;16.976;2024-03-25T04:08:46;98630.48;;;3.92;91.88
59686;BME280;45554;51.096;16.976;2024-03-25T04:11:17;98635.52;;;3.92;91.97
59686;BME280;45554;51.096;16.976;2024-03-25T04:13:46;98637.42;;;3.92;92.08
59686;BME280;45554;51.096;16.976;2024-03-25T04:16:22;98635.21;;;3.91;91.86
59686;BME280;45554;51.096;16.976;2024-03-25T04:18:50;98630.83;;;3.92;91.99
59686;BME280;45554;51.096;16.976;2024-03-25T04:21:17;98633.04;;;3.93;92.20
59686;BME280;45554;51.096;16.976;2024-03-25T04:23:50;98633.83;;;3.94;92.41
59686;BME280;45554;51.096;16.976;2024-03-25T04:26:17;98635.02;;;3.95;92.02
59686;BME280;45554;51.096;16.976;2024-03-25T04:28:47;98637.02;;;3.96;91.90
59686;BME280;45554;51.096;16.976;2024-03-25T04:31:14;98631.71;;;3.98;91.91
59686;BME280;45554;51.096;16.976;2024-03-25T04:33:43;98635.91;;;4.01;91.67
59686;BME280;45554;51.096;16.976;2024-03-25T04:36:09;98640.85;;;4.02;91.46
59686;BME280;45554;51.096;16.976;2024-03-25T04:38:42;98633.00;;;4.00;91.78
59686;BME280;45554;51.096;16.976;2024-03-25T04:41:15;98633.66;;;4.04;91.57
59686;BME280;45554;51.096;16.976;2024-03-25T04:43:57;98638.04;;;4.06;91.79
59686;BME280;45554;51.096;16.976;2024-03-25T04:46:25;98630.16;;;4.08;91.72
59686;BME280;45554;51.096;16.976;2024-03-25T04:48:54;98646.77;;;4.15;91.96
59686;BME280;45554;51.096;16.976;2024-03-25T04:51:22;98626.38;;;4.01;91.50
59686;BME280;45554;51.096;16.976;2024-03-25T04:53:49;98647.98;;;4.18;91.32
59686;BME280;45554;51.096;16.976;2024-03-25T04:56:20;98649.27;;;4.19;91.36
59686;BME280;45554;51.096;16.976;2024-03-25T04:58:48;98652.73;;;4.23;91.31
59686;BME280;45554;51.096;16.976;2024-03-25T05:01:25;98652.33;;;4.24;90.99
59686;BME280;45554;51.096;16.976;2024-03-25T05:03:55;98650.80;;;4.27;90.97
59686;BME280;45554;51.096;16.976;2024-03-25T05:06:26;98639.36;;;4.17;91.45
59686;BME280;45554;51.096;16.976;2024-03-25T05:09:02;98661.08;;;4.32;90.81
59686;BME280;45554;51.096;16.976;2024-03-25T05:11:29;98664.43;;;4.34;90.69
59686;BME280;45554;51.096;16.976;2024-03-25T05:14:04;98668.46;;;4.37;90.44
59686;BME280;45554;51.096;16.976;2024-03-25T05:16:37;98644.92;;;4.23;90.47
59686;BME280;45554;51.096;16.976;2024-03-25T05:19:09;98669.60;;;4.42;90.45
59686;BME280;45554;51.096;16.976;2024-03-25T05:21:37;98670.17;;;4.44;90.02
59686;BME280;45554;51.096;16.976;2024-03-25T05:24:07;98669.59;;;4.48;90.05
59686;BME280;45554;51.096;16.976;2024-03-25T05:26:42;98672.41;;;4.54;89.89
59686;BME280;45554;51.096;16.976;2024-03-25T05:29:24;98679.02;;;4.59;89.42
59686;BME280;45554;51.096;16.976;2024-03-25T05:32:00;98675.26;;;4.65;89.49
59686;BME280;45554;51.096;16.976;2024-03-25T05:34:36;98660.09;;;4.60;89.59
59686;BME280;45554;51.096;16.976;2024-03-25T05:37:04;98691.50;;;4.75;89.39
59686;BME280;45554;51.096;16.976;2024-03-25T05:39:38;98693.45;;;4.77;89.42
59686;BME280;45554;51.096;16.976;2024-03-25T05:42:06;98700.19;;;4.78;89.96
59686;BME280;45554;51.096;16.976;2024-03-25T05:44:50;98713.86;;;4.76;90.35
59686;BME280;45554;51.096;16.976;2024-03-25T05:47:23;98719.08;;;4.66;90.45
59686;BME280;45554;51.096;16.976;2024-03-25T05:49:53;98715.84;;;4.53;91.93
59686;BME280;45554;51.096;16.976;2024-03-25T05:52:36;98705.77;;;4.30;93.73
59686;BME280;45554;51.096;16.976;2024-03-25T05:55:27;98717.62;;;4.16;94.79
59686;BME280;45554;51.096;16.976;2024-03-25T05:57:58;98724.79;;;4.02;95.19
59686;BME280;45554;51.096;16.976;2024-03-25T06:00:33;98725.28;;;3.92;96.51
59686;BME280;45554;51.096;16.976;2024-03-25T06:03:06;98719.63;;;3.81;96.57
59686;BME280;45554;51.096;16.976;2024-03-25T06:05:41;98735.68;;;3.79;96.35
59686;BME280;45554;51.096;16.976;2024-03-25T06:08:16;98729.36;;;3.67;96.27
59686;BME280;45554;51.096;16.976;2024-03-25T06:10:53;98744.71;;;3.75;96.19
59686;BME280;45554;51.096;16.976;2024-03-25T06:13:29;98754.09;;;3.75;95.96
59686;BME280;45554;51.096;16.976;2024-03-25T06:16:00;98759.43;;;3.76;94.89
59686;BME280;45554;51.096;16.976;2024-03-25T06:18:33;98768.27;;;3.75;94.68
59686;BME280;45554;51.096;16.976;2024-03-25T06:21:11;98762.45;;;3.67;94.20
59686;BME280;45554;51.096;16.976;2024-03-25T06:23:50;98761.25;;;3.56;94.28
59686;BME280;45554;51.096;16.976;2024-03-25T06:26:24;98789.59;;;3.68;94.30
59686;BME280;45554;51.096;16.976;2024-03-25T06:28:56;98778.60;;;3.70;94.96
59686;BME280;45554;51.096;16.976;2024-03-25T06:31:29;98785.86;;;3.74;95.08
59686;BME280;45554;51.096;16.976;2024-03-25T06:34:14;98789.50;;;3.77;94.97
59686;BME280;45554;51.096;16.976;2024-03-25T06:36:51;98801.73;;;3.79;94.89
59686;BME280;45554;51.096;16.976;2024-03-25T06:39:20;98804.67;;;3.78;95.05
59686;BME280;45554;51.096;16.976;2024-03-25T06:41:53;98806.00;;;3.76;95.45
59686;BME280;45554;51.096;16.976;2024-03-25T06:44:46;98757.91;;;3.44;95.93
59686;BME280;45554;51.096;16.976;2024-03-25T06:47:18;98804.95;;;3.76;95.89
59686;BME280;45554;51.096;16.976;2024-03-25T06:49:59;98806.53;;;3.79;96.25
59686;BME280;45554;51.096;16.976;2024-03-25T06:52:32;98810.08;;;3.85;96.11
59686;BME280;45554;51.096;16.976;2024-03-25T06:55:02;98813.98;;;3.93;96.18
59686;BME280;45554;51.096;16.976;2024-03-25T06:58:24;98815.73;;;4.04;95.84
59686;BME280;45554;51.096;16.976;2024-03-25T07:02:05;98821.42;;;4.18;95.62
59686;BME280;45554;51.096;16.976;2024-03-25T07:05:21;98821.73;;;4.28;95.49
59686;BME280;45554;51.096;16.976;2024-03-25T07:08:09;98827.46;;;4.38;95.18
59686;BME280;45554;51.096;16.976;2024-03-25T07:10:55;98833.42;;;4.47;94.41
59686;BME280;45554;51.096;16.976;2024-03-25T07:14:03;98814.27;;;4.48;94.02
59686;BME280;45554;51.096;16.976;2024-03-25T07:17:14;98840.38;;;4.73;94.00
59686;BME280;45554;51.096;16.976;2024-03-25T07:20:31;98838.29;;;4.86;93.30
59686;BME280;45554;51.096;16.976;2024-03-25T07:27:01;98843.20;;;5.01;91.60
59686;BME280;45554;51.096;16.976;2024-03-25T07:31:01;98832.93;;;4.92;90.52
59686;BME280;45554;51.096;16.976;2024-03-25T07:39:53;98864.42;;;5.13;89.94
59686;BME280;45554;51.096;16.976;2024-03-25T07:43:09;98867.06;;;5.06;89.88
59686;BME280;45554;51.096;16.976;2024-03-25T07:46:42;98877.28;;;5.00;89.75
59686;BME280;45554;51.096;16.976;2024-03-25T07:50:11;98851.30;;;4.80;90.52
59686;BME280;45554;51.096;16.976;2024-03-25T07:54:05;98857.30;;;4.84;91.19
59686;BME280;45554;51.096;16.976;2024-03-25T07:57:14;98854.38;;;4.81;91.92
59686;BME280;45554;51.096;16.976;2024-03-25T08:23:58;98904.77;;;5.05;92.38
59686;BME280;45554;51.096;16.976;2024-03-25T08:28:25;98919.50;;;5.19;91.74
59686;BME280;45554;51.096;16.976;2024-03-25T08:32:23;98925.46;;;5.18;91.98
59686;BME280;45554;51.096;16.976;2024-03-25T09:22:04;98979.80;;;4.44;100.00
59686;BME280;45554;51.096;16.976;2024-03-25T09:25:56;98993.02;;;4.40;100.00
59686;BME280;45554;51.096;16.976;2024-03-25T09:30:16;98996.10;;;4.37;100.00
59686;BME280;45554;51.096;16.976;2024-03-25T11:47:01;99086.02;;;6.92;84.96
59686;BME280;45554;51.096;16.976;2024-03-25T12:10:04;99080.74;;;7.34;83.14
59686;BME280;45554;51.096;16.976;2024-03-25T14:57:45;99130.73;;;8.88;76.33
59686;BME280;45554;51.096;16.976;2024-03-25T15:01:09;99128.27;;;9.33;74.07
59686;BME280;45554;51.096;16.976;2024-03-25T19:56:28;99298.52;;;4.12;80.69
59686;BME280;45554;51.096;16.976;2024-03-25T19:59:01;99297.96;;;4.09;80.93
59686;BME280;45554;51.096;16.976;2024-03-25T20:01:36;99297.33;;;4.08;80.92
59686;BME280;45554;51.096;16.976;2024-03-25T20:04:15;99301.36;;;4.07;81.09
59686;BME280;45554;51.096;16.976;2024-03-25T20:07:01;99298.91;;;4.04;81.06
59686;BME280;45554;51.096;16.976;2024-03-25T20:09:39;99301.25;;;4.02;81.38
59686;BME280;45554;51.096;16.976;2024-03-25T20:12:09;99299.46;;;3.99;81.49
59686;BME280;45554;51.096;16.976;2024-03-25T20:14:54;99301.30;;;3.97;81.51
59686;BME280;45554;51.096;16.976;2024-03-25T20:17:40;99303.66;;;3.94;81.74
59686;BME280;45554;51.096;16.976;2024-03-25T20:20:19;99306.70;;;3.92;82.06
59686;BME280;45554;51.096;16.976;2024-03-25T20:23:11;99306.98;;;3.90;81.97
59686;BME280;45554;51.096;16.976;2024-03-25T20:25:51;99307.27;;;3.87;82.28
59686;BME280;45554;51.096;16.976;2024-03-25T20:28:48;99308.13;;;3.83;82.52
59686;BME280;45554;51.096;16.976;2024-03-25T20:31:22;99314.09;;;3.81;82.25
59686;BME280;45554;51.096;16.976;2024-03-25T20:34:12;99305.73;;;3.74;82.56
59686;BME280;45554;51.096;16.976;2024-03-25T20:36:55;99317.80;;;3.75;82.75
59686;BME280;45554;51.096;16.976;2024-03-25T20:39:41;99317.63;;;3.71;82.83
59686;BME280;45554;51.096;16.976;2024-03-25T20:42:46;99307.22;;;3.59;82.81
59686;BME280;45554;51.096;16.976;2024-03-25T20:45:29;99321.70;;;3.65;83.01
59686;BME280;45554;51.096;16.976;2024-03-25T20:48:16;99324.09;;;3.61;83.27
59686;BME280;45554;51.096;16.976;2024-03-25T20:55:31;99324.97;;;3.57;83.60
59686;BME280;45554;51.096;16.976;2024-03-25T20:58:10;99324.49;;;3.56;83.82
59686;BME280;45554;51.096;16.976;2024-03-25T21:00:42;99324.44;;;3.53;83.60
59686;BME280;45554;51.096;16.976;2024-03-25T21:03:16;99322.81;;;3.50;83.76
59686;BME280;45554;51.096;16.976;2024-03-25T21:06:09;99323.61;;;3.48;83.84
59686;BME280;45554;51.096;16.976;2024-03-25T21:08:52;99325.11;;;3.45;83.92
59686;BME280;45554;51.096;16.976;2024-03-25T21:11:39;99324.20;;;3.42;84.20
59686;BME280;45554;51.096;16.976;2024-03-25T21:14:09;99324.14;;;3.39;84.23
59686;BME280;45554;51.096;16.976;2024-03-25T21:16:50;99322.70;;;3.36;84.56
59686;BME280;45554;51.096;16.976;2024-03-25T21:19:34;99322.31;;;3.33;84.69
59686;BME280;45554;51.096;16.976;2024-03-25T21:22:10;99323.31;;;3.30;84.91
59686;BME280;45554;51.096;16.976;2024-03-25T21:24:46;99327.17;;;3.28;85.15
59686;BME280;45554;51.096;16.976;2024-03-25T21:27:21;99302.96;;;3.10;84.93
59686;BME280;45554;51.096;16.976;2024-03-25T21:29:54;99328.33;;;3.25;85.21
59686;BME280;45554;51.096;16.976;2024-03-25T22:56:08;99292.81;;;2.55;87.13
59686;BME280;45554;51.096;16.976;2024-03-25T22:59:13;99312.05;;;2.63;87.01
59686;BME280;45554;51.096;16.976;2024-03-25T23:01:57;99317.70;;;2.59;86.83
59686;BME280;45554;51.096;16.976;2024-03-25T23:04:52;99311.39;;;2.52;87.03
59686;BME280;45554;51.096;16.976;2024-03-25T23:07:32;99316.84;;;2.55;87.04
59686;BME280;45554;51.096;16.976;2024-03-25T23:10:15;99319.89;;;2.52;87.26
59686;BME280;45554;51.096;16.976;2024-03-25T23:12:52;99321.02;;;2.49;87.30
59686;BME280;45554;51.096;16.976;2024-03-25T23:15:27;99320.34;;;2.49;87.52
59686;BME280;45554;51.096;16.976;2024-03-25T23:18:02;99327.14;;;2.48;87.40
59686;BME280;45554;51.096;16.976;2024-03-25T23:20:29;99331.48;;;2.47;87.46
59686;BME280;45554;51.096;16.976;2024-03-25T23:23:26;99322.42;;;2.39;87.52
59686;BME280;45554;51.096;16.976;2024-03-25T23:26:24;99331.98;;;2.43;87.59
59686;BME280;45554;51.096;16.976;2024-03-25T23:32:14;99308.84;;;2.28;87.78
59686;BME280;45554;51.096;16.976;2024-03-25T23:34:47;99332.17;;;2.37;87.78
59686;BME280;45554;51.096;16.976;2024-03-25T23:37:34;99333.27;;;2.36;87.96
59686;BME280;45554;51.096;16.976;2024-03-25T23:40:22;99331.27;;;2.34;88.00
59686;BME280;45554;51.096;16.976;2024-03-25T23:42:56;99329.45;;;2.31;88.17
59686;BME280;45554;51.096;16.976;2024-03-25T23:45:51;99331.11;;;2.28;88.24
59686;BME280;45554;51.096;16.976;2024-03-25T23:48:44;99323.36;;;2.18;88.24
59686;BME280;45554;51.096;16.976;2024-03-25T23:51:59;99334.84;;;2.21;88.50
59686;BME280;45554;51.096;16.976;2024-03-25T23:54:50;99335.87;;;2.16;88.55
59686;BME280;45554;51.096;16.976;2024-03-25T23:57:20;99331.16;;;2.12;88.61
59686;BME280;45554;51.096;16.976;2024-03-25T23:59:50;99324.36;;;2.04;88.53
